createdAt,value
2023-01-26T00:00:23.527Z,102115.09
2023-01-26T00:03:13.501Z,102116.05
2023-01-26T00:06:07.730Z,102109.89
2023-01-26T00:08:59.727Z,102109.27
2023-01-26T00:11:50.851Z,102112.06
2023-01-26T00:14:52.191Z,102115.64
2023-01-26T00:17:41.514Z,102118.73
2023-01-26T00:20:31.014Z,102116.73
2023-01-26T00:23:20.517Z,102116.55
2023-01-26T00:26:10.698Z,102115.02
2023-01-26T00:29:00.369Z,102116.70
2023-01-26T00:31:50.128Z,102115.91
2023-01-26T00:34:39.603Z,102110.66
2023-01-26T00:37:29.313Z,102113.98
2023-01-26T00:40:18.936Z,102113.30
2023-01-26T00:43:07.951Z,102108.80
2023-01-26T00:45:57.059Z,102109.63
2023-01-26T00:48:47.982Z,102106.80
2023-01-26T00:51:37.920Z,102106.52
2023-01-26T00:54:27.697Z,102108.33
2023-01-26T00:57:17.482Z,102107.02
2023-01-26T01:00:07.946Z,102101.42
2023-01-26T01:02:57.502Z,102100.61
2023-01-26T01:05:46.827Z,102097.77
2023-01-26T01:08:35.976Z,102098.24
2023-01-26T01:11:25.041Z,102098.16
2023-01-26T01:14:14.568Z,102096.73
2023-01-26T01:17:04.022Z,102097.88
2023-01-26T01:19:53.260Z,102094.50
2023-01-26T01:22:43.900Z,102091.98
2023-01-26T01:25:34.875Z,102088.41
2023-01-26T01:28:23.938Z,102089.10
2023-01-26T01:31:14.977Z,102083.77
2023-01-26T01:34:04.579Z,102081.70
2023-01-26T01:36:55.182Z,102086.44
2023-01-26T01:39:44.286Z,102080.88
2023-01-26T01:42:33.950Z,102079.89
2023-01-26T01:45:25.990Z,102077.09
2023-01-26T01:48:25.006Z,102069.20
2023-01-26T01:51:17.229Z,102065.19
2023-01-26T01:54:09.494Z,102065.83
2023-01-26T01:57:00.496Z,102062.80
2023-01-26T01:59:52.340Z,102063.33
2023-01-26T02:02:44.248Z,102060.00
2023-01-26T02:05:35.242Z,102054.04
2023-01-26T02:08:27.418Z,102055.30
2023-01-26T02:11:22.832Z,102047.45
2023-01-26T02:14:12.365Z,102046.77
2023-01-26T02:17:02.725Z,102037.80
2023-01-26T02:20:27.148Z,102041.00
2023-01-26T02:23:44.924Z,102035.29
2023-01-26T02:26:36.041Z,102028.13
2023-01-26T02:29:25.455Z,102029.65
2023-01-26T02:32:14.883Z,102030.66
2023-01-26T02:35:04.534Z,102029.58
2023-01-26T02:37:53.915Z,102028.08
2023-01-26T02:41:04.870Z,102023.42
2023-01-26T02:43:54.473Z,102026.05
2023-01-26T02:46:43.693Z,102028.80
2023-01-26T02:49:48.532Z,102028.23
2023-01-26T02:52:38.789Z,102027.81
2023-01-26T02:55:33.886Z,102020.64
2023-01-26T02:58:23.051Z,102016.54
2023-01-26T03:01:12.714Z,102015.11
2023-01-26T03:04:09.405Z,102012.02
2023-01-26T03:07:01.091Z,102003.69
2023-01-26T03:09:50.774Z,102004.20
2023-01-26T03:12:40.255Z,102000.68
2023-01-26T03:15:42.994Z,101998.30
2023-01-26T03:18:52.558Z,101996.80
2023-01-26T03:22:02.665Z,101995.05
2023-01-26T03:25:10.539Z,101990.73
2023-01-26T03:27:59.688Z,101991.99
2023-01-26T03:30:50.446Z,101994.31
2023-01-26T03:33:40.773Z,101991.52
2023-01-26T03:36:30.115Z,101993.61
2023-01-26T03:39:38.269Z,101991.84
2023-01-26T03:42:46.083Z,101990.72
2023-01-26T03:45:54.087Z,101981.91
2023-01-26T03:49:03.477Z,101980.33
2023-01-26T03:52:11.331Z,101978.38
2023-01-26T03:55:19.075Z,101979.46
2023-01-26T03:58:09.675Z,101978.51
2023-01-26T04:00:58.778Z,101977.56
2023-01-26T04:04:06.946Z,101974.58
2023-01-26T04:07:14.600Z,101971.77
2023-01-26T04:10:09.140Z,101977.66
2023-01-26T04:13:18.247Z,101978.84
2023-01-26T04:16:31.370Z,101979.73
2023-01-26T04:19:39.246Z,101985.58
2023-01-26T04:22:29.602Z,101984.55
2023-01-26T04:25:20.154Z,101984.63
2023-01-26T04:28:09.748Z,101986.30
2023-01-26T04:30:59.443Z,101990.30
2023-01-26T04:33:48.566Z,101993.02
2023-01-26T04:36:38.148Z,101994.18
2023-01-26T04:39:28.543Z,101989.07
2023-01-26T04:42:18.811Z,101987.39
2023-01-26T04:45:10.482Z,101983.06
2023-01-26T04:47:59.933Z,101985.36
2023-01-26T04:50:56.895Z,101986.33
2023-01-26T04:53:47.331Z,101990.92
2023-01-26T04:56:37.174Z,101991.79
2023-01-26T04:59:26.865Z,101990.21
2023-01-26T05:02:21.281Z,101989.20
2023-01-26T05:05:10.701Z,101984.13
2023-01-26T05:08:01.534Z,101988.18
2023-01-26T05:10:52.548Z,101991.39
2023-01-26T05:14:02.161Z,101993.34
2023-01-26T05:17:13.187Z,101995.90
2023-01-26T05:20:22.754Z,101999.11
2023-01-26T05:23:31.275Z,101997.25
2023-01-26T05:26:43.308Z,101999.60
2023-01-26T05:29:36.391Z,101995.24
2023-01-26T05:32:27.309Z,101994.69
2023-01-26T05:35:18.282Z,101996.14
2023-01-26T05:38:07.661Z,101998.70
2023-01-26T05:40:58.622Z,102004.60
2023-01-26T05:43:47.847Z,102007.52
2023-01-26T05:46:54.429Z,102004.81
2023-01-26T05:49:46.032Z,102010.45
2023-01-26T05:52:42.264Z,102009.16
2023-01-26T05:55:33.555Z,102004.98
2023-01-26T05:58:25.432Z,102003.80
2023-01-26T06:01:14.924Z,102002.58
2023-01-26T06:04:10.304Z,102005.84
2023-01-26T06:07:06.084Z,102001.08
2023-01-26T06:10:05.541Z,102000.72
2023-01-26T06:13:14.976Z,102001.90
2023-01-26T06:16:09.913Z,102002.70
2023-01-26T06:18:59.675Z,101998.88
2023-01-26T06:21:49.227Z,101990.83
2023-01-26T06:24:38.551Z,101991.05
2023-01-26T06:27:30.191Z,101988.62
2023-01-26T06:30:21.623Z,101991.46
2023-01-26T06:33:14.526Z,101994.01
2023-01-26T06:36:05.026Z,101995.54
2023-01-26T06:38:58.152Z,101991.39
2023-01-26T06:42:18.168Z,101991.55
2023-01-26T06:45:07.999Z,101990.31
2023-01-26T06:47:57.518Z,101994.95
2023-01-26T06:50:46.753Z,101994.15
2023-01-26T06:53:38.640Z,101995.77
2023-01-26T06:56:39.556Z,101997.58
2023-01-26T06:59:43.302Z,102000.35
2023-01-26T07:02:46.143Z,101996.36
2023-01-26T07:05:36.027Z,101998.39
2023-01-26T07:08:25.652Z,101998.89
2023-01-26T07:11:20.301Z,101998.86
2023-01-26T07:14:10.211Z,102001.16
2023-01-26T07:16:59.542Z,102007.90
2023-01-26T07:19:48.816Z,102009.27
2023-01-26T07:22:38.397Z,102008.48
2023-01-26T07:25:28.279Z,102008.34
2023-01-26T07:28:18.242Z,102007.70
2023-01-26T07:31:13.775Z,102004.11
2023-01-26T07:34:08.068Z,102003.46
2023-01-26T07:36:57.715Z,102002.92
2023-01-26T07:39:46.912Z,101996.02
2023-01-26T07:42:36.510Z,101997.79
2023-01-26T07:45:41.824Z,101991.74
2023-01-26T07:48:31.108Z,101994.88
2023-01-26T07:51:20.314Z,101997.77
2023-01-26T07:54:10.873Z,102000.69
2023-01-26T07:57:00.568Z,102001.80
2023-01-26T07:59:51.397Z,101995.48
2023-01-26T08:02:42.363Z,101990.80
2023-01-26T08:05:39.182Z,101993.77
2023-01-26T08:08:28.752Z,101993.12
2023-01-26T08:11:28.625Z,101995.68
2023-01-26T08:14:24.925Z,101996.73
2023-01-26T08:17:17.647Z,101997.09
2023-01-26T08:20:09.653Z,102001.56
2023-01-26T08:23:00.519Z,102002.82
2023-01-26T08:26:11.238Z,102003.38
2023-01-26T08:29:07.870Z,101996.02
2023-01-26T08:31:58.485Z,101995.82
2023-01-26T08:34:48.367Z,101992.91
2023-01-26T08:37:40.960Z,101992.95
2023-01-26T08:40:33.238Z,101993.35
2023-01-26T08:43:23.933Z,101983.71
2023-01-26T08:46:15.858Z,101990.52
2023-01-26T08:49:05.264Z,101978.52
2023-01-26T08:51:57.098Z,101984.95
2023-01-26T08:54:47.855Z,101978.84
2023-01-26T08:57:40.516Z,101979.33
2023-01-26T09:00:36.257Z,101976.06
2023-01-26T09:03:27.461Z,101971.77
2023-01-26T09:06:17.373Z,101967.22
2023-01-26T09:09:14.606Z,101966.86
2023-01-26T09:12:06.523Z,101959.07
2023-01-26T09:14:59.144Z,101951.20
2023-01-26T09:17:52.507Z,101954.29
2023-01-26T09:20:44.806Z,101950.14
2023-01-26T09:23:46.148Z,101951.71
2023-01-26T09:26:38.692Z,101946.02
2023-01-26T09:29:41.791Z,101946.73
2023-01-26T09:32:31.856Z,101941.50
2023-01-26T09:35:23.837Z,101941.35
2023-01-26T09:38:16.981Z,101941.62
2023-01-26T09:41:39.963Z,101936.67
2023-01-26T09:44:33.597Z,101936.95
2023-01-26T09:47:49.901Z,101932.80
2023-01-26T09:50:46.468Z,101931.83
2023-01-26T09:53:53.036Z,101928.05
2023-01-26T09:56:43.685Z,101922.27
2023-01-26T09:59:39.992Z,101919.00
2023-01-26T10:02:56.094Z,101921.41
2023-01-26T12:09:47.174Z,101835.09
2023-01-26T12:12:41.028Z,101839.39
2023-01-26T12:15:37.064Z,101839.10
2023-01-26T12:19:15.266Z,101840.11
2023-01-26T12:22:38.274Z,101837.12
2023-01-26T12:25:37.073Z,101837.66
2023-01-26T12:28:40.086Z,101839.31
2023-01-26T12:31:37.414Z,101838.84
2023-01-26T12:34:32.665Z,101833.86
2023-01-26T12:37:52.089Z,101830.50
2023-01-26T12:40:45.217Z,101825.58
2023-01-26T12:43:45.627Z,101826.64
2023-01-26T12:46:37.225Z,101829.17
2023-01-26T12:49:40.725Z,101829.59
2023-01-26T12:52:39.929Z,101827.39
2023-01-26T12:55:30.699Z,101826.05
2023-01-26T12:58:23.655Z,101819.06
2023-01-26T13:01:13.808Z,101814.70
2023-01-26T13:04:08.064Z,101809.83
2023-01-26T13:07:07.935Z,101808.70
2023-01-26T13:10:08.702Z,101804.23
2023-01-26T13:13:05.997Z,101800.39
2023-01-26T13:16:17.386Z,101799.21
2023-01-26T13:19:09.364Z,101803.52
2023-01-26T13:21:59.549Z,101804.86
2023-01-26T13:24:58.433Z,101809.71
2023-01-26T13:27:57.209Z,101809.98
2023-01-26T13:30:46.541Z,101808.87
2023-01-26T13:33:36.796Z,101807.80
2023-01-26T13:36:30.844Z,101807.78
2023-01-26T13:39:34.773Z,101809.02
2023-01-26T13:42:31.842Z,101805.65
2023-01-26T13:45:36.557Z,101802.21
2023-01-26T13:48:37.395Z,101797.28
2023-01-26T13:51:31.077Z,101798.58
2023-01-26T13:54:21.233Z,101796.13
2023-01-26T13:57:11.339Z,101794.84
2023-01-26T14:00:03.592Z,101792.41
2023-01-26T14:02:56.195Z,101789.26
2023-01-26T14:05:52.724Z,101790.39
2023-01-26T14:08:45.907Z,101791.51
2023-01-26T14:11:35.253Z,101801.31
2023-01-26T14:14:26.450Z,101802.70
2023-01-26T14:17:27.976Z,101800.34
2023-01-26T14:20:27.273Z,101796.33
2023-01-26T14:23:19.294Z,101791.79
2023-01-26T14:26:20.745Z,101786.46
2023-01-26T14:29:18.418Z,101787.50
2023-01-26T14:32:16.801Z,101784.93
2023-01-26T14:35:19.408Z,101784.02
2023-01-26T14:38:11.240Z,101780.79
2023-01-26T14:41:00.906Z,101779.66
2023-01-26T14:43:57.103Z,101779.98
2023-01-26T14:46:50.137Z,101783.70
2023-01-26T14:49:52.259Z,101782.52
2023-01-26T14:52:44.350Z,101784.05
2023-01-26T14:55:39.105Z,101779.52
2023-01-26T14:58:30.159Z,101775.62
2023-01-26T15:01:23.134Z,101774.70
2023-01-26T15:04:27.431Z,101773.12
2023-01-26T15:07:44.039Z,101770.77
2023-01-26T15:10:38.134Z,101775.40
2023-01-26T15:13:30.099Z,101772.22
2023-01-26T15:16:23.149Z,101773.11
2023-01-26T15:19:24.946Z,101775.55
2023-01-26T15:22:19.518Z,101774.24
2023-01-26T15:25:17.332Z,101768.69
2023-01-26T15:28:05.984Z,101768.80
2023-01-26T15:30:55.926Z,101770.05
2023-01-26T15:33:52.181Z,101770.07
2023-01-26T15:36:48.026Z,101774.41
2023-01-26T15:39:37.426Z,101768.40
2023-01-26T15:42:28.924Z,101767.39
2023-01-26T15:45:23.414Z,101768.95
2023-01-26T15:48:12.595Z,101760.70
2023-01-26T15:51:01.422Z,101764.25
2023-01-26T15:53:50.148Z,101759.97
2023-01-26T15:56:39.494Z,101763.56
2023-01-26T15:59:28.217Z,101762.04
2023-01-26T18:06:34.868Z,101765.84
2023-01-26T18:09:24.170Z,101765.51
2023-01-26T18:12:13.232Z,101760.52
2023-01-26T18:15:01.952Z,101762.27
2023-01-26T18:17:50.947Z,101764.59
2023-01-26T18:20:40.049Z,101763.30
2023-01-26T18:23:28.768Z,101765.31
2023-01-26T18:26:18.301Z,101759.52
2023-01-26T18:29:07.074Z,101755.70
2023-01-26T18:31:55.883Z,101753.70
2023-01-26T18:34:44.803Z,101752.33
2023-01-26T18:37:36.398Z,101747.48
2023-01-26T18:40:25.262Z,101746.92
2023-01-26T18:43:14.337Z,101750.61
2023-01-26T18:46:03.305Z,101743.03
2023-01-26T18:48:53.367Z,101742.00
2023-01-26T18:51:47.913Z,101740.79
2023-01-26T18:54:36.659Z,101741.59
2023-01-26T18:57:25.403Z,101741.74
2023-01-26T19:00:14.326Z,101737.46
2023-01-26T19:03:03.054Z,101733.15
2023-01-26T19:05:53.059Z,101733.13
2023-01-26T19:08:42.622Z,101736.45
2023-01-26T19:11:34.105Z,101734.41
2023-01-26T19:14:23.306Z,101729.80
2023-01-26T19:17:12.188Z,101725.57
2023-01-26T19:20:00.823Z,101726.83
2023-01-26T19:22:54.235Z,101722.27
2023-01-26T19:25:43.185Z,101724.64
2023-01-26T19:28:32.378Z,101720.15
2023-01-26T19:31:21.930Z,101716.61
2023-01-26T19:34:13.290Z,101722.05
2023-01-26T19:37:02.201Z,101718.43
2023-01-26T19:39:51.039Z,101718.84
2023-01-26T19:42:40.250Z,101717.04
2023-01-26T19:45:29.488Z,101716.51
2023-01-26T19:48:18.807Z,101713.32
2023-01-26T19:51:15.269Z,101715.20
2023-01-26T19:54:06.847Z,101710.79
2023-01-26T19:56:55.818Z,101709.30
2023-01-26T19:59:44.697Z,101704.39
2023-01-26T20:02:33.733Z,101702.10
2023-01-26T20:05:22.559Z,101701.06
2023-01-26T20:08:11.524Z,101702.13
2023-01-26T20:11:05.204Z,101704.35
2023-01-26T20:13:59.058Z,101704.48
2023-01-26T20:16:47.933Z,101703.23
2023-01-26T20:19:37.059Z,101701.29
2023-01-26T20:22:26.250Z,101702.63
2023-01-26T20:25:19.900Z,101696.75
2023-01-26T20:28:08.841Z,101701.27
2023-01-26T20:31:17.108Z,101703.65
2023-01-26T20:34:12.488Z,101706.71
2023-01-26T20:37:01.472Z,101712.27
2023-01-26T20:39:50.733Z,101715.75
2023-01-26T20:42:39.673Z,101718.61
2023-01-26T20:45:28.571Z,101712.70
2023-01-26T20:48:17.432Z,101716.06
2023-01-26T20:51:10.297Z,101718.12
2023-01-26T20:53:59.213Z,101717.13
2023-01-26T20:56:49.915Z,101712.73
2023-01-26T20:59:39.436Z,101709.18
2023-01-26T21:02:28.336Z,101706.39
2023-01-26T21:05:19.876Z,101709.88
2023-01-26T21:08:08.604Z,101704.48
2023-01-26T21:10:57.663Z,101705.61
2023-01-26T21:13:46.855Z,101699.46
2023-01-26T21:16:42.792Z,101696.21
2023-01-26T21:19:33.294Z,101695.94
2023-01-26T21:22:22.397Z,101692.88
2023-01-26T21:25:11.678Z,101690.77
2023-01-26T21:28:22.169Z,101692.45
2023-01-26T21:31:14.091Z,101694.41
2023-01-26T21:34:02.921Z,101693.71
2023-01-26T21:36:51.603Z,101689.44
2023-01-26T21:39:40.713Z,101686.58
2023-01-26T21:42:29.478Z,101681.05
2023-01-26T21:45:37.028Z,101681.43
2023-01-26T21:48:31.706Z,101676.90
2023-01-26T21:51:39.886Z,101672.10
2023-01-26T21:54:29.958Z,101669.08
2023-01-26T21:57:37.148Z,101663.02
2023-01-26T22:00:26.690Z,101658.67
2023-01-26T22:03:15.423Z,101655.57
2023-01-26T22:06:04.479Z,101654.16
2023-01-26T22:08:53.775Z,101651.52
2023-01-26T22:11:42.562Z,101648.27
2023-01-26T22:14:31.559Z,101647.43
2023-01-26T22:17:20.641Z,101645.23
2023-01-26T22:20:10.235Z,101643.45
2023-01-26T22:22:59.904Z,101643.52
2023-01-26T22:25:48.772Z,101641.81
2023-01-26T22:28:37.586Z,101637.85
2023-01-26T22:31:28.054Z,101632.11
2023-01-26T22:34:16.741Z,101629.11
2023-01-26T22:37:06.042Z,101625.34
2023-01-26T22:39:54.716Z,101622.36
2023-01-26T22:42:43.399Z,101621.56
2023-01-26T22:45:32.442Z,101620.45
2023-01-26T22:48:21.295Z,101615.59
2023-01-26T22:51:21.648Z,101616.66
2023-01-26T22:54:10.462Z,101614.91
2023-01-26T22:56:59.121Z,101617.36
2023-01-26T22:59:47.929Z,101613.60
2023-01-26T23:02:36.961Z,101611.16
2023-01-26T23:05:25.759Z,101607.50
2023-01-26T23:08:14.385Z,101609.42
2023-01-26T23:11:11.161Z,101605.07
2023-01-26T23:14:00.811Z,101603.98
2023-01-26T23:16:49.662Z,101598.54
2023-01-26T23:19:38.306Z,101592.85
2023-01-26T23:22:27.049Z,101590.70
2023-01-26T23:25:34.234Z,101593.70
2023-01-26T23:28:29.061Z,101593.54
2023-01-26T23:31:18.394Z,101594.67
2023-01-26T23:34:07.147Z,101601.35
2023-01-26T23:36:55.716Z,101601.41
2023-01-26T23:39:44.523Z,101607.20
2023-01-26T23:42:41.531Z,101613.73
2023-01-26T23:45:39.084Z,101609.98
2023-01-26T23:48:28.291Z,101611.90
2023-01-26T23:51:17.155Z,101608.52
2023-01-26T23:54:05.834Z,101604.17
2023-01-26T23:56:54.573Z,101608.96
2023-01-26T23:59:43.268Z,101606.83
